Main page
METAR-TAF:

METAR-TAF

Airports :

Roskilde Airport

Roskilde, Denmark

latitude: 55-35N, longitude: 012-08E, elevation: 44 m

Current weather observation

The report was made 19 minutes ago, at 02:20 UTC
Wind 15 kt from the Southwest
Temperature 6°C
Humidity 87%
Pressure 988 hPa
Visibility 10 km or more

METAR: EKRK 090220Z AUTO 23015KT 9999 SCT019/// SCT064/// BKN110/// 06/04 Q0988

Time: 03:39 (02:39 UTC)

Forecast

The report was made 3 hours and 17 minutes ago, at 23:22 UTC
Forecast valid from 09 at 00 UTC to 09 at 09 UTC
Wind 15 kt from the Southwest
Visibility 10 km or more
Broken clouds at a height of 2000 ft
Temporary
from 09 at 00 UTC to 09 at 09 UTC
Wind 18 kt from the West/Southwest with gusts up to 28 kt
Visibility: 4000 m
Broken clouds at a height of 1200 ft
Scattered clouds at a height of 2000 ft, Cumulonimbus.
rain showers

TAF: EKRK 082322Z 0900/0909 22015KT 9999 BKN020 TEMPO 0900/0909 24018G28KT 4000 SHRA BKN012 SCT020CB

Weather observations and forecasts of more than 4000 airports (METAR and TAF reports).

The available stations are represented by yellow and red dots on the map.

Hover mouse over dot to see the name of the station.

Then click to see weather observations and forecasts.

To change the map : click on the green buttons with a black cross to zoom in, on the green button with a dash to zoom out, or on the green arrows for adjacent maps.


METAR-TAF: